createdAt,value
2023-01-21T06:40:10.530Z,33.00
2023-01-21T06:45:12.679Z,33.37
2023-01-21T06:50:17.407Z,32.60
2023-01-21T06:55:19.478Z,35.07
2023-01-21T07:00:21.693Z,34.57
2023-01-21T07:05:23.369Z,33.27
2023-01-21T07:10:25.450Z,33.10
2023-01-21T07:15:30.938Z,32.80
2023-01-21T07:20:32.757Z,32.90
2023-01-21T07:25:36.234Z,32.40
2023-01-21T07:30:38.140Z,35.53
2023-01-21T07:35:40.233Z,36.53
2023-01-21T07:40:42.090Z,33.93
2023-01-21T07:45:44.271Z,31.60
2023-01-21T07:50:46.038Z,30.90
2023-01-21T07:55:47.749Z,30.57
2023-01-21T08:00:50.490Z,31.27
2023-01-21T08:05:52.409Z,29.87
2023-01-21T08:10:55.469Z,30.23
2023-01-21T08:15:57.300Z,28.87
2023-01-21T08:21:00.181Z,29.37
2023-01-21T08:26:03.834Z,29.80
2023-01-21T08:31:11.328Z,31.47
2023-01-21T08:36:13.265Z,30.37
2023-01-21T08:41:14.910Z,30.77
2023-01-21T08:46:17.687Z,30.80
2023-01-21T08:51:19.497Z,31.77
2023-01-21T08:56:22.214Z,30.70
2023-01-21T09:01:25.958Z,29.00
2023-01-21T09:06:30.081Z,30.63
2023-01-21T09:11:32.423Z,30.97
2023-01-21T09:16:35.446Z,33.10
2023-01-21T09:21:37.978Z,29.87
2023-01-21T09:26:44.180Z,30.20
2023-01-21T09:31:47.187Z,30.40
2023-01-21T09:36:48.860Z,30.03
2023-01-21T09:41:55.406Z,31.87
2023-01-21T09:47:16.821Z,31.53
2023-01-21T09:52:30.612Z,30.73
2023-01-21T09:57:59.271Z,32.47
2023-01-21T10:03:17.979Z,31.33
2023-01-21T10:08:31.123Z,33.13
2023-01-21T10:14:23.319Z,31.23
2023-01-21T10:19:33.352Z,30.47
2023-01-21T10:24:49.063Z,31.20
2023-01-21T10:29:55.559Z,27.87
2023-01-21T10:34:58.130Z,28.57
2023-01-21T10:40:17.847Z,28.97
2023-01-21T10:45:42.297Z,29.30
2023-01-21T10:50:56.571Z,29.27
2023-01-21T10:56:20.197Z,29.67
2023-01-21T11:01:28.218Z,30.50
2023-01-21T11:06:32.586Z,31.60
2023-01-21T11:11:35.696Z,29.67
2023-01-21T11:16:47.193Z,30.90
2023-01-21T11:22:02.898Z,30.57
2023-01-21T11:27:04.512Z,29.40
2023-01-21T11:32:19.672Z,30.53
2023-01-21T11:37:25.262Z,28.80
2023-01-21T11:42:27.197Z,28.53
2023-01-21T11:47:50.105Z,29.87
2023-01-21T11:53:08.055Z,29.27
2023-01-21T11:58:31.601Z,29.77
2023-01-21T12:03:46.292Z,30.20
2023-01-21T12:08:54.479Z,28.93
2023-01-21T12:14:40.522Z,29.03
2023-01-21T12:20:02.517Z,29.93
2023-01-21T12:25:31.897Z,30.50
2023-01-21T12:30:42.651Z,29.53
2023-01-21T12:36:17.632Z,28.90
2023-01-21T12:41:28.675Z,29.63
2023-01-21T12:46:41.056Z,28.90
2023-01-21T12:51:46.375Z,28.67
2023-01-21T12:57:17.049Z,28.83
2023-01-21T13:02:35.894Z,30.00
2023-01-21T13:07:48.013Z,29.53
2023-01-21T13:12:56.271Z,29.07
2023-01-21T13:18:02.008Z,30.63
2023-01-21T13:23:23.631Z,29.17
2023-01-21T13:28:35.718Z,29.80
2023-01-21T13:33:52.776Z,30.23
2023-01-21T13:38:59.331Z,28.70
2023-01-21T13:44:10.037Z,29.87
2023-01-21T13:49:30.167Z,28.13
2023-01-21T13:54:46.354Z,28.43
2023-01-21T14:00:17.434Z,27.73
2023-01-21T14:05:40.985Z,28.00
2023-01-21T14:10:53.707Z,28.77
2023-01-21T14:15:58.078Z,28.63
2023-01-21T14:21:12.312Z,27.80
2023-01-21T14:26:32.493Z,29.90
2023-01-21T14:31:41.620Z,29.23
2023-01-21T14:37:02.003Z,28.33
2023-01-21T14:42:10.916Z,29.90
2023-01-21T14:47:40.313Z,30.30
2023-01-21T14:52:46.669Z,29.90
2023-01-21T14:57:52.895Z,27.70
2023-01-21T15:03:15.691Z,29.07
2023-01-21T15:08:45.645Z,28.63
2023-01-21T15:14:07.367Z,27.93
2023-01-21T15:19:16.638Z,28.60
2023-01-21T15:24:32.401Z,27.73
2023-01-21T15:29:36.965Z,27.13
2023-01-21T15:34:39.032Z,27.53
2023-01-21T15:39:40.698Z,28.27
2023-01-21T15:45:21.504Z,28.03
2023-01-21T15:51:03.104Z,27.10
2023-01-21T15:56:29.896Z,26.80
2023-01-21T16:01:40.242Z,26.87
2023-01-21T16:06:59.174Z,28.83
2023-01-21T16:12:26.949Z,32.77
2023-01-21T16:18:01.010Z,28.67
2023-01-21T16:23:07.293Z,27.63
2023-01-21T16:28:08.930Z,25.90
2023-01-21T16:33:15.791Z,25.80
2023-01-21T16:38:23.797Z,29.60
2023-01-21T16:43:27.693Z,28.67
2023-01-21T16:48:32.407Z,28.53
2023-01-21T16:53:34.066Z,27.67
2023-01-21T16:58:36.229Z,26.67
2023-01-21T17:03:38.498Z,26.20
2023-01-21T17:08:40.704Z,26.07
2023-01-21T17:13:43.684Z,27.37
2023-01-21T17:19:01.584Z,28.70
2023-01-21T17:24:07.757Z,28.60
2023-01-21T17:29:25.659Z,28.73
2023-01-21T17:34:29.964Z,32.40
2023-01-21T17:40:01.086Z,30.50
2023-01-21T17:45:05.134Z,29.97
2023-01-21T17:50:23.284Z,29.50
2023-01-21T17:55:28.617Z,30.73
2023-01-21T18:00:46.118Z,30.20
2023-01-21T18:05:49.141Z,28.70
2023-01-21T18:10:50.918Z,31.20
2023-01-21T18:15:54.244Z,41.07
2023-01-21T18:20:56.490Z,35.73
2023-01-21T18:25:58.808Z,37.07
2023-01-21T18:31:02.153Z,32.97
2023-01-21T18:36:04.036Z,29.63
2023-01-21T18:41:06.231Z,29.40
2023-01-21T18:46:13.715Z,30.87
2023-01-21T18:51:15.473Z,31.50
2023-01-21T18:56:17.236Z,29.83
2023-01-21T19:01:23.511Z,30.93
2023-01-21T19:06:25.743Z,29.97
2023-01-21T19:11:27.448Z,30.53
2023-01-21T19:16:29.315Z,31.03
2023-01-21T19:21:30.930Z,28.40
2023-01-21T19:26:32.945Z,28.27
2023-01-21T19:31:34.766Z,30.43
2023-01-21T19:36:36.538Z,28.77
2023-01-21T19:41:38.153Z,32.43
2023-01-21T19:46:39.983Z,35.20
2023-01-21T19:51:42.430Z,32.27
2023-01-21T19:56:44.236Z,31.17
2023-01-21T20:01:46.349Z,28.17
2023-01-21T20:06:48.200Z,27.87
2023-01-21T20:11:49.828Z,28.93
2023-01-21T20:16:54.200Z,28.67
2023-01-21T20:22:02.175Z,28.90
2023-01-21T20:27:07.726Z,30.67
2023-01-21T20:32:11.315Z,29.17
2023-01-21T20:37:15.071Z,29.33
2023-01-21T20:42:16.684Z,29.57
2023-01-21T20:47:27.627Z,29.00
2023-01-21T20:52:39.899Z,29.13
2023-01-21T20:57:41.959Z,28.03
2023-01-21T21:02:43.967Z,28.10
2023-01-21T21:07:45.634Z,29.20
2023-01-21T21:12:48.835Z,28.53
2023-01-21T21:17:50.487Z,27.23
2023-01-21T21:22:52.528Z,39.57
2023-01-21T21:27:54.785Z,33.90
2023-01-21T21:32:58.288Z,30.17
2023-01-21T21:38:05.539Z,28.97
2023-01-21T21:43:25.769Z,28.93
2023-01-21T21:48:54.704Z,27.33
2023-01-21T21:53:56.400Z,28.30
2023-01-21T21:58:58.091Z,29.27
